Time;durP1;ratioP1;P1;durP2;ratioP2;P2;SDS_P1;SDS_P2;PMS_P1;PMS_P2;Temp;Humidity;BMP_temperature;BMP_pressure;BME280_temperature;BME280_humidity;BME280_pressure;Samples;Min_cycle;Max_cycle;Signal;HPM_P1;HPM_P2
2023/10/29 00:00:32;;;;;;;2.97;1.40;;;14.20;92.20;;;;;;5113032;28;20024;-53
2023/10/29 00:02:58;;;;;;;4.20;2.05;;;14.10;92.20;;;;;;5094719;28;20032;-53
2023/10/29 00:05:24;;;;;;;6.80;2.03;;;14.10;92.20;;;;;;5094775;28;20055;-53
2023/10/29 00:07:49;;;;;;;3.20;1.85;;;14.10;92.20;;;;;;5078100;28;20081;-53
2023/10/29 00:10:18;;;;;;;3.67;2.08;;;14.00;92.20;;;;;;5078161;28;20059;-53
2023/10/29 00:12:43;;;;;;;5.00;1.80;;;14.00;92.20;;;;;;5094322;28;20028;-53
2023/10/29 00:15:09;;;;;;;6.32;2.08;;;14.00;92.30;;;;;;5078110;28;20024;-53
2023/10/29 00:17:35;;;;;;;6.18;2.08;;;14.00;92.30;;;;;;5077713;28;20027;-53
2023/10/29 00:20:00;;;;;;;4.80;1.90;;;14.00;92.30;;;;;;5094762;28;20032;-53
2023/10/29 00:22:27;;;;;;;3.22;1.85;;;13.90;92.30;;;;;;5112517;28;20028;-53
2023/10/29 00:24:52;;;;;;;4.63;2.10;;;13.90;92.30;;;;;;5078016;28;20051;-53
2023/10/29 00:27:18;;;;;;;5.18;2.10;;;13.90;92.40;;;;;;5078039;28;20024;-53
2023/10/29 00:29:45;;;;;;;3.67;1.63;;;13.90;92.40;;;;;;5060984;28;20035;-53
2023/10/29 00:32:11;;;;;;;6.05;1.77;;;13.90;92.40;;;;;;5112628;28;20052;-53
2023/10/29 00:34:36;;;;;;;3.92;1.67;;;13.90;92.40;;;;;;5112681;28;20035;-53
2023/10/29 00:37:03;;;;;;;6.80;2.40;;;13.90;92.40;;;;;;5094426;28;20032;-53
2023/10/29 00:39:28;;;;;;;4.57;2.17;;;13.90;92.70;;;;;;5112725;28;20024;-53
2023/10/29 00:41:54;;;;;;;4.60;1.90;;;13.90;92.50;;;;;;5094457;28;20062;-54
2023/10/29 00:44:19;;;;;;;2.78;1.70;;;13.90;92.80;;;;;;5094404;28;20175;-53
2023/10/29 00:46:45;;;;;;;6.07;2.10;;;13.80;92.50;;;;;;5112706;28;20456;-53
2023/10/29 00:49:11;;;;;;;2.60;2.00;;;13.80;92.50;;;;;;5091249;28;20046;-54
2023/10/29 00:51:37;;;;;;;4.85;1.88;;;13.80;92.60;;;;;;5074406;28;20115;-53
2023/10/29 00:54:02;;;;;;;3.25;1.73;;;13.80;92.90;;;;;;5091054;28;20016;-53
2023/10/29 00:56:29;;;;;;;2.60;1.58;;;13.70;92.60;;;;;;5091220;28;20028;-53
2023/10/29 00:58:55;;;;;;;3.42;1.77;;;13.80;92.70;;;;;;5074491;28;20024;-53
2023/10/29 01:01:20;;;;;;;3.45;1.85;;;13.70;92.70;;;;;;5074410;28;20097;-53
2023/10/29 01:03:46;;;;;;;3.35;1.48;;;13.70;92.70;;;;;;5074351;28;20070;-53
2023/10/29 01:06:12;;;;;;;3.38;1.65;;;13.70;92.70;;;;;;5091016;28;20070;-53
2023/10/29 01:08:37;;;;;;;5.60;1.92;;;13.70;92.70;;;;;;5074062;28;20023;-53
2023/10/29 01:11:05;;;;;;;8.38;2.00;;;13.70;92.70;;;;;;5074137;28;20439;-53
2023/10/29 01:13:32;;;;;;;3.72;1.60;;;13.70;92.70;;;;;;5091149;28;20043;-53
2023/10/29 01:15:58;;;;;;;5.03;1.90;;;13.70;92.60;;;;;;5074068;28;20104;-53
2023/10/29 01:18:23;;;;;;;2.15;1.52;;;13.70;92.70;;;;;;5108834;28;20028;-53
2023/10/29 01:20:49;;;;;;;2.95;1.70;;;13.70;92.70;;;;;;5108672;28;20032;-53
2023/10/29 01:23:14;;;;;;;5.95;1.80;;;13.60;92.70;;;;;;5090809;28;20028;-53
2023/10/29 01:25:41;;;;;;;2.47;1.80;;;13.70;93.10;;;;;;5108791;28;20028;-53
2023/10/29 01:28:06;;;;;;;4.75;1.98;;;13.70;92.80;;;;;;5070230;28;20021;-53
2023/10/29 01:30:32;;;;;;;3.50;1.92;;;13.60;92.80;;;;;;5071981;28;20083;-53
2023/10/29 01:32:59;;;;;;;2.67;1.63;;;13.60;92.80;;;;;;5108354;28;20035;-53
2023/10/29 01:35:24;;;;;;;3.70;2.10;;;13.60;92.80;;;;;;5074604;28;20070;-53
2023/10/29 01:37:51;;;;;;;2.58;1.48;;;13.60;92.80;;;;;;5108287;28;20036;-53
2023/10/29 01:40:16;;;;;;;5.18;1.70;;;13.60;92.80;;;;;;5090532;28;20024;-53
2023/10/29 01:42:43;;;;;;;3.13;1.63;;;13.60;92.90;;;;;;5057017;28;20059;-53
2023/10/29 01:45:10;;;;;;;4.13;2.10;;;13.60;92.90;;;;;;5108341;28;20077;-53
2023/10/29 01:47:35;;;;;;;4.68;1.88;;;13.50;92.90;;;;;;5090394;28;20035;-54
2023/10/29 01:50:01;;;;;;;4.70;1.92;;;13.50;93.00;;;;;;5073652;28;20107;-53
2023/10/29 01:52:26;;;;;;;2.72;1.38;;;13.50;93.00;;;;;;5107828;28;20079;-53
2023/10/29 01:54:52;;;;;;;2.42;1.60;;;13.50;93.00;;;;;;5089968;28;20106;-54
2023/10/29 01:57:17;;;;;;;3.30;1.70;;;13.50;93.10;;;;;;5089933;28;20109;-53
2023/10/29 01:59:43;;;;;;;2.58;1.65;;;13.50;93.10;;;;;;5107879;28;20024;-53
2023/10/29 02:02:09;;;;;;;6.70;2.00;;;13.50;93.10;;;;;;5089836;28;20492;-53
2023/10/29 02:04:34;;;;;;;2.42;1.50;;;13.50;93.10;;;;;;5107981;28;20476;-53
2023/10/29 02:07:00;;;;;;;3.08;1.55;;;13.40;93.20;;;;;;5089740;28;20036;-53
2023/10/29 02:09:26;;;;;;;2.15;1.45;;;13.40;93.20;;;;;;5107898;28;20035;-53
2023/10/29 02:11:51;;;;;;;5.50;2.00;;;13.40;93.20;;;;;;5089683;28;20083;-53
2023/10/29 02:14:17;;;;;;;3.25;1.70;;;13.40;93.20;;;;;;5072880;28;20370;-54
2023/10/29 02:16:42;;;;;;;3.88;1.77;;;13.40;93.20;;;;;;5089454;28;20024;-53
2023/10/29 02:19:08;;;;;;;3.60;1.80;;;13.40;93.30;;;;;;5072843;28;20035;-53
2023/10/29 02:21:34;;;;;;;2.08;1.50;;;13.30;93.30;;;;;;5107473;28;20404;-53
2023/10/29 02:24:01;;;;;;;4.13;1.80;;;13.30;93.30;;;;;;5072611;28;20031;-53
2023/10/29 02:26:27;;;;;;;2.55;1.48;;;13.40;93.30;;;;;;5089669;28;20054;-53
2023/10/29 02:28:52;;;;;;;4.72;1.60;;;13.30;93.30;;;;;;5107512;28;20028;-53
2023/10/29 02:31:20;;;;;;;6.03;2.10;;;13.30;93.40;;;;;;5107405;28;20028;-53
2023/10/29 02:33:46;;;;;;;3.10;1.60;;;13.30;93.40;;;;;;5055899;28;20028;-53
2023/10/29 02:36:12;;;;;;;2.00;1.35;;;13.30;93.40;;;;;;5072749;28;20032;-53
2023/10/29 02:38:38;;;;;;;4.68;1.83;;;13.30;93.40;;;;;;5089089;28;20460;-53
2023/10/29 02:41:06;;;;;;;2.95;1.55;;;13.30;93.40;;;;;;5089235;28;20119;-53
2023/10/29 02:43:33;;;;;;;2.95;1.80;;;13.30;93.40;;;;;;5054289;28;20036;-53
2023/10/29 02:45:58;;;;;;;3.78;1.50;;;13.20;93.40;;;;;;5107263;28;20096;-53
2023/10/29 02:48:25;;;;;;;2.65;1.50;;;13.20;93.40;;;;;;5069398;28;20544;-53
2023/10/29 02:50:51;;;;;;;2.88;1.60;;;13.20;93.50;;;;;;5106982;28;20115;-53
2023/10/29 02:53:17;;;;;;;3.42;1.42;;;13.20;93.60;;;;;;5089259;28;20042;-53
2023/10/29 02:55:42;;;;;;;4.75;1.58;;;13.20;93.60;;;;;;5089643;28;20040;-53
2023/10/29 02:58:08;;;;;;;2.90;1.60;;;13.20;93.60;;;;;;5091371;28;20024;-53
2023/10/29 03:00:33;;;;;;;4.10;1.75;;;13.10;93.60;;;;;;5091187;28;20123;-52
2023/10/29 03:02:59;;;;;;;2.58;1.90;;;13.10;93.60;;;;;;5070727;28;20522;-53
2023/10/29 03:05:24;;;;;;;2.65;1.70;;;13.10;93.60;;;;;;5088727;28;20039;-53
2023/10/29 03:07:50;;;;;;;2.38;1.65;;;13.10;93.70;;;;;;5106775;28;20028;-53
2023/10/29 03:10:15;;;;;;;3.70;1.35;;;13.10;93.60;;;;;;5088762;28;20472;-53
2023/10/29 03:12:41;;;;;;;3.10;1.67;;;13.10;93.70;;;;;;5087926;28;20157;-53
2023/10/29 03:15:07;;;;;;;2.58;1.55;;;13.10;93.70;;;;;;5088524;28;20073;-53
2023/10/29 03:17:33;;;;;;;4.38;1.75;;;13.10;93.70;;;;;;5055102;28;20059;-53
2023/10/29 03:19:58;;;;;;;2.08;1.50;;;13.10;93.70;;;;;;5088320;28;20028;-53
2023/10/29 03:22:24;;;;;;;2.60;1.50;;;13.10;93.80;;;;;;5106558;28;20032;-53
2023/10/29 03:24:49;;;;;;;4.47;1.67;;;13.00;93.80;;;;;;5071893;28;20043;-53
2023/10/29 03:27:15;;;;;;;4.95;1.67;;;13.00;93.80;;;;;;5106670;28;20028;-53
2023/10/29 03:29:41;;;;;;;2.67;1.67;;;13.00;93.90;;;;;;5071633;28;20032;-53
2023/10/29 03:32:06;;;;;;;3.10;1.90;;;13.00;93.80;;;;;;5088361;28;20032;-53
2023/10/29 03:34:32;;;;;;;2.85;1.90;;;13.00;93.90;;;;;;5088298;28;20024;-53
2023/10/29 03:36:57;;;;;;;3.10;1.50;;;12.90;93.90;;;;;;5071571;28;20489;-53
2023/10/29 03:39:23;;;;;;;4.18;1.83;;;13.00;94.00;;;;;;5106497;28;20016;-53
2023/10/29 03:41:48;;;;;;;2.25;1.42;;;12.90;94.00;;;;;;5106367;28;20552;-53
2023/10/29 03:44:14;;;;;;;3.08;1.60;;;12.90;94.00;;;;;;5106271;28;20021;-53
2023/10/29 03:46:40;;;;;;;2.67;1.80;;;12.90;94.10;;;;;;5088280;28;20036;-53
2023/10/29 03:49:06;;;;;;;4.10;1.77;;;12.90;94.30;;;;;;5106384;28;20492;-53
2023/10/29 03:51:32;;;;;;;3.38;1.50;;;12.90;94.10;;;;;;5088167;28;20040;-53
2023/10/29 03:53:57;;;;;;;2.53;1.73;;;12.90;94.10;;;;;;5088081;28;20017;-53
2023/10/29 03:56:23;;;;;;;5.47;1.60;;;12.80;94.00;;;;;;5087904;28;20028;-53
2023/10/29 03:58:49;;;;;;;1.60;1.30;;;12.80;94.10;;;;;;5106315;28;20026;-53
2023/10/29 04:01:18;;;;;;;3.50;1.85;;;12.80;94.10;;;;;;5106083;28;20032;-53
2023/10/29 04:03:43;;;;;;;3.58;2.00;;;12.80;94.10;;;;;;5088609;28;20049;-53
2023/10/29 04:06:10;;;;;;;1.70;1.40;;;12.80;94.10;;;;;;5071552;28;20063;-51
2023/10/29 04:08:36;;;;;;;2.75;1.75;;;12.80;94.10;;;;;;5071275;28;20020;-54
2023/10/29 04:11:02;;;;;;;2.67;1.85;;;12.80;94.10;;;;;;5106132;28;20028;-53
2023/10/29 04:13:27;;;;;;;5.25;1.70;;;12.80;94.10;;;;;;5106228;28;20449;-53
2023/10/29 04:15:53;;;;;;;2.55;1.50;;;12.80;94.10;;;;;;5106105;28;20092;-53
2023/10/29 04:18:19;;;;;;;4.75;1.70;;;12.80;94.30;;;;;;5088004;28;20053;-53
2023/10/29 04:20:45;;;;;;;3.20;1.80;;;12.70;94.10;;;;;;5106013;28;20108;-53
2023/10/29 04:23:10;;;;;;;2.80;1.40;;;12.80;94.10;;;;;;5087801;28;20396;-53
2023/10/29 04:25:36;;;;;;;3.17;1.70;;;12.70;94.10;;;;;;5074659;28;20048;-53
2023/10/29 04:28:01;;;;;;;3.28;1.75;;;12.70;94.10;;;;;;5091339;28;20024;-53
2023/10/29 04:30:27;;;;;;;3.28;1.50;;;12.70;94.30;;;;;;5109847;28;20043;-53
2023/10/29 04:32:53;;;;;;;2.42;1.50;;;12.70;94.20;;;;;;5109892;28;20020;-53
2023/10/29 04:35:18;;;;;;;3.88;1.63;;;12.70;94.20;;;;;;5091750;28;20084;-53
2023/10/29 04:37:44;;;;;;;3.25;1.67;;;12.60;94.40;;;;;;5074611;28;20020;-53
2023/10/29 04:40:10;;;;;;;2.88;1.67;;;12.60;94.30;;;;;;5074724;28;20036;-53
2023/10/29 04:42:35;;;;;;;2.75;1.40;;;12.60;94.30;;;;;;5091376;28;20027;-53
2023/10/29 04:45:01;;;;;;;1.52;1.25;;;12.60;94.30;;;;;;5109538;28;20048;-53
2023/10/29 04:47:26;;;;;;;3.17;1.40;;;12.60;94.30;;;;;;5090992;28;20490;-53
2023/10/29 04:49:52;;;;;;;2.25;1.65;;;12.60;94.30;;;;;;5109188;28;20028;-54
2023/10/29 04:52:17;;;;;;;4.97;1.27;;;12.60;94.40;;;;;;5109303;28;20024;-53
2023/10/29 04:54:43;;;;;;;3.20;1.83;;;12.60;94.40;;;;;;5074601;28;20016;-53
2023/10/29 04:57:09;;;;;;;6.20;1.52;;;12.60;94.40;;;;;;5074836;28;20028;-53
2023/10/29 04:59:36;;;;;;;2.35;1.83;;;12.50;94.40;;;;;;5074026;28;20024;-53
2023/10/29 05:02:03;;;;;;;2.53;1.60;;;12.60;94.40;;;;;;5109277;28;20040;-53
2023/10/29 05:04:29;;;;;;;3.20;1.60;;;12.60;94.40;;;;;;5074299;28;20063;-54
2023/10/29 05:06:54;;;;;;;1.38;1.25;;;12.50;94.40;;;;;;5109051;28;20036;-53
2023/10/29 05:09:20;;;;;;;1.38;1.20;;;12.60;94.50;;;;;;5090917;28;20031;-53
2023/10/29 05:11:45;;;;;;;2.85;1.60;;;12.60;94.50;;;;;;5108746;28;20036;-53
2023/10/29 05:14:11;;;;;;;3.38;1.40;;;12.50;94.50;;;;;;5090719;28;20024;-53
2023/10/29 05:16:36;;;;;;;3.70;1.83;;;12.50;94.60;;;;;;5090766;28;20079;-53
2023/10/29 05:19:02;;;;;;;4.47;1.75;;;12.60;94.60;;;;;;5090806;28;20051;-53
2023/10/29 05:21:28;;;;;;;3.35;1.92;;;12.50;94.60;;;;;;5090483;28;20491;-53
2023/10/29 05:23:54;;;;;;;4.25;1.75;;;12.60;94.70;;;;;;5073859;28;20471;-53
2023/10/29 05:26:20;;;;;;;4.43;2.17;;;12.50;94.70;;;;;;5108673;28;20075;-53
2023/10/29 05:28:46;;;;;;;9.40;2.10;;;12.50;94.70;;;;;;5090289;28;20024;-53
2023/10/29 05:31:11;;;;;;;5.10;2.22;;;12.50;94.70;;;;;;5073516;28;20475;-53
2023/10/29 05:33:37;;;;;;;5.68;2.25;;;12.50;94.80;;;;;;5073712;28;20399;-53
2023/10/29 05:36:03;;;;;;;4.75;2.40;;;12.50;94.80;;;;;;5108038;28;20121;-53
2023/10/29 05:38:29;;;;;;;5.38;2.38;;;12.60;94.80;;;;;;5073664;28;20066;-53
2023/10/29 05:40:54;;;;;;;7.80;2.88;;;12.60;94.80;;;;;;5073299;28;20024;-53
2023/10/29 05:43:20;;;;;;;4.15;2.35;;;12.60;94.80;;;;;;5090257;28;20050;-53
2023/10/29 05:45:46;;;;;;;7.88;2.47;;;12.50;94.80;;;;;;5090045;28;20028;-54
2023/10/29 05:48:11;;;;;;;7.85;2.67;;;12.50;94.80;;;;;;5090304;28;20024;-53
2023/10/29 05:50:38;;;;;;;8.57;2.40;;;12.50;94.80;;;;;;5090223;28;20024;-53
2023/10/29 05:53:04;;;;;;;8.10;2.67;;;12.50;94.80;;;;;;5073259;28;20088;-53
2023/10/29 05:55:29;;;;;;;4.13;2.25;;;12.60;94.80;;;;;;5089822;28;20039;-53
2023/10/29 05:57:56;;;;;;;4.97;2.80;;;12.50;94.80;;;;;;5069613;28;20050;-53
2023/10/29 06:00:22;;;;;;;8.57;2.50;;;12.50;94.80;;;;;;5086682;28;20028;-53
2023/10/29 06:02:47;;;;;;;8.85;2.28;;;12.50;94.80;;;;;;5107998;28;20050;-53
2023/10/29 06:05:13;;;;;;;6.43;2.17;;;12.50;94.80;;;;;;5089775;28;20047;-53
2023/10/29 06:07:43;;;;;;;5.72;2.50;;;12.40;94.80;;;;;;5089806;28;20028;-53
2023/10/29 06:10:10;;;;;;;3.47;1.95;;;12.40;94.90;;;;;;5074524;28;20035;-53
2023/10/29 06:12:36;;;;;;;5.65;2.45;;;12.40;94.90;;;;;;5107627;28;20085;-53
2023/10/29 06:15:01;;;;;;;7.15;2.30;;;12.40;94.90;;;;;;5089724;28;20025;-53
2023/10/29 06:17:29;;;;;;;4.85;2.28;;;12.40;95.00;;;;;;5089644;28;20016;-53
2023/10/29 06:19:54;;;;;;;8.95;2.30;;;12.40;94.90;;;;;;5089428;28;20043;-53
2023/10/29 06:22:20;;;;;;;5.40;2.00;;;12.40;94.90;;;;;;5089192;28;20095;-54
2023/10/29 06:24:46;;;;;;;5.72;2.22;;;12.40;94.90;;;;;;5072705;28;20043;-53
2023/10/29 06:27:11;;;;;;;5.05;2.10;;;12.30;94.90;;;;;;5107629;28;20050;-53
2023/10/29 06:29:38;;;;;;;5.80;2.20;;;12.40;95.00;;;;;;5089355;28;20039;-53
2023/10/29 06:32:04;;;;;;;7.05;1.83;;;12.30;95.00;;;;;;5072323;28;20091;-53
2023/10/29 06:34:29;;;;;;;5.13;2.00;;;12.30;95.00;;;;;;5107312;28;20236;-53
2023/10/29 06:36:55;;;;;;;5.28;2.40;;;12.30;95.00;;;;;;5107304;28;20055;-53
2023/10/29 06:39:20;;;;;;;5.57;1.90;;;12.30;95.00;;;;;;5089026;28;20081;-53
2023/10/29 06:41:46;;;;;;;4.38;2.13;;;12.30;95.00;;;;;;5107174;28;20153;-53
2023/10/29 06:44:11;;;;;;;5.22;2.08;;;12.30;95.10;;;;;;5089062;28;20032;-53
2023/10/29 06:46:37;;;;;;;7.53;1.90;;;12.30;95.10;;;;;;5106181;28;20400;-53
2023/10/29 06:49:03;;;;;;;4.93;1.70;;;12.30;95.10;;;;;;5088865;28;20078;-53
2023/10/29 06:51:28;;;;;;;3.30;1.85;;;12.30;95.00;;;;;;5106906;28;20024;-54
2023/10/29 06:53:54;;;;;;;3.45;1.60;;;12.30;95.00;;;;;;5107157;28;20020;-53
2023/10/29 06:56:19;;;;;;;4.45;1.98;;;12.30;95.00;;;;;;5088952;28;20028;-53
2023/10/29 06:58:45;;;;;;;4.43;1.83;;;12.30;95.00;;;;;;5088667;28;20028;-53
2023/10/29 07:01:11;;;;;;;4.95;1.83;;;12.30;95.00;;;;;;5106832;28;20495;-53
2023/10/29 07:03:37;;;;;;;7.97;2.35;;;12.30;95.00;;;;;;5106791;28;20039;-53
2023/10/29 07:06:07;;;;;;;4.72;1.98;;;12.30;95.30;;;;;;5088939;28;20063;-53
2023/10/29 07:08:33;;;;;;;3.92;1.73;;;12.30;95.00;;;;;;5088524;28;20487;-53
2023/10/29 07:11:00;;;;;;;3.45;1.98;;;12.30;95.00;;;;;;5106862;28;20036;-53
2023/10/29 07:13:25;;;;;;;5.45;1.73;;;12.20;95.00;;;;;;5090567;28;20030;-53
2023/10/29 07:15:51;;;;;;;3.20;1.83;;;12.30;95.00;;;;;;5091800;28;20036;-53
2023/10/29 07:18:16;;;;;;;6.20;2.03;;;12.30;95.00;;;;;;5074998;28;20032;-53
2023/10/29 07:20:42;;;;;;;4.70;2.05;;;12.30;95.00;;;;;;5106584;28;20096;-53
2023/10/29 07:23:08;;;;;;;3.72;1.75;;;12.20;95.00;;;;;;5088821;28;20031;-53
2023/10/29 07:25:34;;;;;;;5.53;1.70;;;12.30;95.00;;;;;;5107934;28;20107;-53
2023/10/29 07:28:00;;;;;;;4.32;2.05;;;12.20;95.00;;;;;;5088278;28;20035;-54
2023/10/29 07:30:25;;;;;;;2.15;1.50;;;12.20;95.10;;;;;;5071739;28;20219;-53
2023/10/29 07:32:51;;;;;;;3.50;1.80;;;12.20;95.00;;;;;;5088213;28;20028;-53
2023/10/29 07:35:16;;;;;;;3.88;1.83;;;12.30;95.10;;;;;;5106353;28;20048;-53
2023/10/29 07:37:42;;;;;;;4.10;1.75;;;12.30;95.10;;;;;;5106428;28;20056;-53
2023/10/29 07:40:09;;;;;;;4.30;1.83;;;12.30;95.00;;;;;;5088196;28;20089;-53
2023/10/29 07:42:35;;;;;;;6.60;1.80;;;12.20;95.10;;;;;;5106351;28;20471;-53
2023/10/29 07:45:01;;;;;;;4.93;1.83;;;12.30;95.10;;;;;;5088444;28;20032;-53
2023/10/29 07:47:26;;;;;;;10.80;2.10;;;12.30;95.10;;;;;;5088190;28;20458;-54
2023/10/29 07:49:52;;;;;;;8.93;2.17;;;12.30;95.00;;;;;;5106358;28;20081;-53
2023/10/29 07:52:17;;;;;;;6.95;2.13;;;12.20;95.00;;;;;;5106199;28;20419;-53
2023/10/29 07:54:43;;;;;;;10.63;1.98;;;12.20;95.00;;;;;;5106355;28;20020;-53
2023/10/29 07:57:08;;;;;;;11.68;2.33;;;12.30;94.90;;;;;;5054738;28;20058;-53
2023/10/29 07:59:34;;;;;;;6.35;2.15;;;12.30;94.90;;;;;;5109988;28;20024;-53
2023/10/29 08:02:00;;;;;;;5.70;1.90;;;12.30;94.90;;;;;;5110498;28;20028;-53
2023/10/29 08:04:28;;;;;;;4.55;1.92;;;12.30;94.90;;;;;;5058824;28;20028;-52
2023/10/29 08:06:54;;;;;;;17.30;2.40;;;12.30;95.00;;;;;;5092184;28;20396;-52
2023/10/29 08:09:21;;;;;;;5.68;1.90;;;12.30;95.00;;;;;;5091713;28;20482;-53
2023/10/29 08:11:48;;;;;;;10.25;2.50;;;12.30;95.00;;;;;;5091757;28;20035;-53
2023/10/29 08:14:13;;;;;;;5.38;1.92;;;12.30;95.00;;;;;;5092066;28;20028;-53
2023/10/29 08:16:39;;;;;;;7.85;1.98;;;12.30;95.00;;;;;;5110224;28;20034;-53
2023/10/29 08:19:06;;;;;;;7.45;2.05;;;12.30;95.30;;;;;;5092026;28;20079;-53
2023/10/29 08:21:31;;;;;;;7.95;2.10;;;12.30;95.00;;;;;;5109739;28;20115;-54
2023/10/29 08:23:57;;;;;;;3.58;1.60;;;12.40;95.00;;;;;;5074983;28;20201;-53
2023/10/29 08:26:24;;;;;;;9.63;2.15;;;12.30;94.90;;;;;;5091717;28;20475;-53
2023/10/29 08:28:50;;;;;;;5.60;1.70;;;12.30;95.00;;;;;;5074790;28;20048;-53
2023/10/29 08:31:15;;;;;;;9.15;1.90;;;12.30;94.90;;;;;;5109576;28;20039;-53
2023/10/29 08:33:41;;;;;;;7.10;2.17;;;12.40;94.90;;;;;;5074801;28;20035;-53
2023/10/29 08:36:07;;;;;;;7.05;1.88;;;12.40;94.90;;;;;;5091270;28;20024;-53
2023/10/29 08:38:33;;;;;;;6.88;1.80;;;12.40;94.90;;;;;;5091396;28;20054;-53
2023/10/29 08:40:58;;;;;;;7.10;2.13;;;12.40;94.80;;;;;;5109501;28;20042;-53
2023/10/29 08:43:24;;;;;;;4.70;1.92;;;12.40;94.80;;;;;;5054919;28;20094;-53
2023/10/29 08:45:50;;;;;;;5.38;1.90;;;12.40;95.10;;;;;;5091192;28;20426;-53
2023/10/29 08:48:15;;;;;;;10.23;2.15;;;12.40;94.80;;;;;;5091235;28;20053;-53
2023/10/29 08:50:41;;;;;;;4.65;1.73;;;12.40;94.80;;;;;;5109544;28;20039;-53
2023/10/29 08:53:06;;;;;;;5.70;2.17;;;12.50;94.90;;;;;;5074209;28;20092;-53
2023/10/29 08:55:34;;;;;;;3.75;2.10;;;12.50;94.90;;;;;;5090915;28;20089;-53
2023/10/29 08:58:00;;;;;;;5.53;1.85;;;12.50;95.00;;;;;;5070787;28;20089;-53
2023/10/29 09:00:26;;;;;;;7.60;2.20;;;12.50;95.00;;;;;;5071572;28;20115;-53
2023/10/29 09:02:52;;;;;;;5.13;1.73;;;12.50;95.00;;;;;;5109018;28;20039;-53
2023/10/29 09:05:18;;;;;;;6.13;2.13;;;12.50;95.10;;;;;;5074370;28;20020;-53
2023/10/29 09:07:44;;;;;;;4.25;1.92;;;12.50;95.20;;;;;;5074006;28;20028;-53
2023/10/29 09:10:09;;;;;;;2.58;1.33;;;12.50;95.20;;;;;;5089473;28;20568;-53
2023/10/29 09:12:35;;;;;;;6.75;1.95;;;12.50;95.30;;;;;;5056994;28;20024;-53
2023/10/29 09:15:01;;;;;;;4.32;1.88;;;12.60;95.40;;;;;;5087248;28;20028;-53
2023/10/29 09:17:27;;;;;;;6.10;2.15;;;12.60;95.40;;;;;;5068278;28;20021;-53
2023/10/29 09:19:52;;;;;;;8.05;2.33;;;12.60;95.50;;;;;;5085372;28;20051;-53
2023/10/29 09:22:18;;;;;;;9.40;2.22;;;12.60;95.60;;;;;;5083551;28;20048;-53
2023/10/29 09:24:44;;;;;;;13.32;2.25;;;12.60;95.60;;;;;;5077262;28;20143;-53
2023/10/29 09:27:10;;;;;;;14.48;2.65;;;12.70;95.60;;;;;;5071450;28;20037;-53
2023/10/29 09:29:36;;;;;;;4.65;2.03;;;12.70;95.70;;;;;;5084377;28;20028;-53
2023/10/29 09:32:04;;;;;;;15.20;2.72;;;12.70;95.70;;;;;;5037306;28;20358;-53
2023/10/29 09:34:32;;;;;;;29.58;4.03;;;12.70;95.80;;;;;;5067326;28;20048;-54
2023/10/29 09:36:58;;;;;;;19.13;3.67;;;12.80;95.90;;;;;;5085803;28;20472;-53
2023/10/29 09:39:24;;;;;;;21.67;3.65;;;12.90;95.90;;;;;;5072893;28;20058;-53
2023/10/29 09:41:54;;;;;;;20.60;4.10;;;12.80;96.00;;;;;;5065855;28;20036;-53
2023/10/29 09:44:19;;;;;;;45.78;5.70;;;12.90;96.00;;;;;;5054743;28;20083;-53
2023/10/29 09:46:45;;;;;;;21.77;4.43;;;13.00;96.10;;;;;;5044850;28;20037;-53
2023/10/29 09:49:10;;;;;;;31.27;3.75;;;12.90;96.10;;;;;;5050280;28;20472;-53
2023/10/29 09:51:36;;;;;;;37.08;4.50;;;13.00;96.10;;;;;;5058634;28;20055;-54
2023/10/29 09:54:02;;;;;;;52.78;8.38;;;13.00;96.20;;;;;;5054316;28;20038;-53
2023/10/29 09:56:30;;;;;;;66.13;7.85;;;13.00;96.20;;;;;;5052738;28;20097;-53
2023/10/29 09:58:55;;;;;;;59.95;7.40;;;13.20;96.40;;;;;;5063678;28;20025;-53
2023/10/29 10:01:21;;;;;;;56.95;8.23;;;13.20;96.40;;;;;;5054677;28;20107;-53
2023/10/29 10:03:46;;;;;;;80.95;10.68;;;13.30;96.50;;;;;;5054774;28;20029;-53
2023/10/29 10:06:13;;;;;;;71.35;9.50;;;13.30;96.60;;;;;;5048565;28;20055;-54
2023/10/29 10:08:39;;;;;;;130.98;15.07;;;13.30;96.60;;;;;;5068565;28;20029;-51
2023/10/29 10:11:04;;;;;;;110.50;15.55;;;13.40;96.90;;;;;;5065350;28;20108;-53
2023/10/29 10:13:41;;;;;;;115.30;13.23;;;13.40;96.60;;;;;;5061195;28;20028;-53
2023/10/29 10:16:14;;;;;;;98.85;13.25;;;13.90;96.80;;;;;;5068446;28;20024;-53
2023/10/29 10:18:57;;;;;;;101.22;11.63;;;13.50;96.70;;;;;;5050164;28;20441;-53
2023/10/29 10:21:24;;;;;;;101.07;14.52;;;13.60;96.70;;;;;;5077409;28;20037;-53
2023/10/29 10:23:55;;;;;;;114.90;15.13;;;13.60;96.70;;;;;;5038162;28;20545;-54
2023/10/29 10:26:34;;;;;;;152.82;17.33;;;13.70;96.90;;;;;;5067082;28;20392;-53
2023/10/29 10:29:00;;;;;;;139.40;16.85;;;13.80;96.90;;;;;;5080140;28;20036;-53
2023/10/29 10:31:31;;;;;;;135.38;17.15;;;13.80;96.80;;;;;;5059971;28;20032;-54
2023/10/29 10:34:13;;;;;;;99.20;14.73;;;13.90;96.70;;;;;;5044630;28;20025;-53
2023/10/29 10:36:40;;;;;;;205.38;22.27;;;13.90;96.50;;;;;;5067671;28;20031;-53
2023/10/29 10:39:05;;;;;;;256.02;28.30;;;13.90;96.60;;;;;;5071436;28;20047;-54
2023/10/29 10:42:00;;;;;;;319.35;30.00;;;14.00;96.70;;;;;;5074882;28;20135;-54
2023/10/29 10:44:31;;;;;;;240.77;29.48;;;14.10;96.80;;;;;;5075662;28;20040;-53
2023/10/29 10:46:58;;;;;;;281.25;30.00;;;14.10;96.80;;;;;;5059123;28;20028;-54
2023/10/29 10:49:24;;;;;;;276.83;29.65;;;14.20;96.80;;;;;;5052946;28;20033;-53
2023/10/29 10:51:55;;;;;;;271.10;30.27;;;14.20;96.60;;;;;;5064880;28;20044;-53
2023/10/29 10:54:21;;;;;;;313.73;33.47;;;14.30;96.50;;;;;;5052816;28;20012;-53
2023/10/29 10:56:47;;;;;;;289.60;31.27;;;14.30;96.50;;;;;;5081097;28;20069;-53
2023/10/29 10:59:13;;;;;;;295.75;34.28;;;14.40;96.30;;;;;;5048872;28;20025;-53
2023/10/29 11:01:39;;;;;;;261.65;30.00;;;14.40;96.20;;;;;;5070102;28;20036;-53
2023/10/29 11:04:07;;;;;;;257.85;30.08;;;14.50;96.00;;;;;;5093409;28;20027;-53
2023/10/29 11:06:36;;;;;;;285.73;29.58;;;14.50;95.90;;;;;;5088018;28;20513;-53
2023/10/29 11:09:02;;;;;;;253.15;29.77;;;14.50;95.70;;;;;;5067011;28;20020;-54
2023/10/29 11:11:45;;;;;;;203.27;23.92;;;14.60;95.60;;;;;;5065875;28;20117;-53
2023/10/29 11:14:12;;;;;;;289.60;33.58;;;14.60;95.30;;;;;;5059579;28;20025;-54
2023/10/29 11:16:48;;;;;;;237.25;30.10;;;14.70;95.10;;;;;;5057929;28;20020;-53
2023/10/29 11:19:32;;;;;;;;;;;14.70;94.90;;;;;;5055509;28;20032;-53
2023/10/29 11:22:17;;;;;;;282.83;33.42;;;14.80;94.50;;;;;;5092375;28;20372;-53
2023/10/29 11:24:43;;;;;;;265.30;31.65;;;14.80;94.50;;;;;;5078456;28;20033;-53
2023/10/29 11:27:40;;;;;;;256.27;29.17;;;14.80;94.40;;;;;;5070368;28;20024;-53
2023/10/29 11:30:19;;;;;;;232.45;27.80;;;14.90;94.30;;;;;;5083683;28;20043;-53
2023/10/29 11:32:46;;;;;;;265.67;30.88;;;14.90;94.00;;;;;;5054926;28;20028;-53
2023/10/29 11:35:14;;;;;;;235.15;28.17;;;15.00;93.90;;;;;;5047345;28;20060;-53
2023/10/29 11:37:40;;;;;;;240.10;28.67;;;15.00;93.70;;;;;;5073999;28;20017;-53
2023/10/29 11:40:29;;;;;;;231.85;27.95;;;15.10;93.70;;;;;;5044203;28;20048;-53
2023/10/29 11:42:56;;;;;;;233.20;27.77;;;15.10;93.80;;;;;;5060899;28;20024;-54
2023/10/29 11:45:51;;;;;;;236.93;29.67;;;15.20;93.70;;;;;;5073008;28;20024;-53
2023/10/29 11:48:17;;;;;;;206.38;27.75;;;15.20;93.60;;;;;;5084756;28;20023;-53
2023/10/29 11:51:02;;;;;;;253.80;29.52;;;15.20;93.60;;;;;;5060863;28;20035;-53
2023/10/29 11:53:28;;;;;;;264.05;29.35;;;15.20;93.50;;;;;;5085165;28;20092;-53
2023/10/29 11:55:57;;;;;;;205.18;26.70;;;15.20;93.50;;;;;;5066058;28;20040;-53
2023/10/29 11:58:23;;;;;;;265.33;32.33;;;15.30;93.40;;;;;;5040151;28;20021;-53
2023/10/29 12:00:48;;;;;;;275.90;30.50;;;15.30;93.40;;;;;;5067856;28;20043;-53
2023/10/29 12:03:19;;;;;;;269.08;31.88;;;15.40;93.40;;;;;;5089668;28;20067;-54
2023/10/29 12:05:51;;;;;;;259.73;30.98;;;15.40;93.40;;;;;;5075235;28;20056;-54
2023/10/29 12:08:17;;;;;;;242.77;29.00;;;15.50;93.20;;;;;;5054283;28;20028;-53
2023/10/29 12:10:50;;;;;;;281.42;32.17;;;15.50;93.30;;;;;;5057201;28;20039;-53
2023/10/29 12:13:18;;;;;;;246.80;30.73;;;15.50;93.30;;;;;;5044735;28;20035;-53
2023/10/29 12:16:01;;;;;;;244.48;29.90;;;15.60;93.20;;;;;;5064942;28;20048;-54
2023/10/29 12:18:27;;;;;;;255.27;29.15;;;15.60;93.10;;;;;;5070974;28;20025;-53
2023/10/29 12:21:22;;;;;;;278.48;31.42;;;15.60;92.90;;;;;;5058059;28;20068;-53
2023/10/29 12:23:49;;;;;;;243.52;31.30;;;15.70;93.00;;;;;;5058556;28;20042;-53
2023/10/29 12:26:14;;;;;;;246.02;30.52;;;15.70;92.90;;;;;;5070385;28;20070;-53
2023/10/29 12:28:40;;;;;;;281.83;39.13;;;15.70;93.00;;;;;;5055152;28;20020;-53
2023/10/29 12:31:06;;;;;;;299.77;36.13;;;15.70;93.00;;;;;;5069767;28;20103;-53
2023/10/29 12:33:33;;;;;;;263.73;31.58;;;15.80;92.90;;;;;;5055760;28;20417;-54
2023/10/29 12:35:59;;;;;;;290.70;35.53;;;15.80;92.60;;;;;;5090672;28;20105;-53
2023/10/29 12:38:25;;;;;;;284.38;35.63;;;15.90;92.50;;;;;;5084185;28;20032;-53